Time;durP1;ratioP1;P1;durP2;ratioP2;P2;SDS_P1;SDS_P2;PMS_P1;PMS_P2;Temp;Humidity;BMP_temperature;BMP_pressure;BME280_temperature;BME280_humidity;BME280_pressure;Samples;Min_cycle;Max_cycle;Signal;HPM_P1;HPM_P2
2023/04/29 00:04:45;;;;;;;;;;;22.00;50.00;;;;;;4768013;55;20359;-32
2023/04/29 00:09:45;;;;;;;;;;;22.00;50.10;;;;;;4794812;55;20113;-29
2023/04/29 00:14:46;;;;;;;;;;;22.00;50.10;;;;;;4775406;55;20124;-31
2023/04/29 00:19:47;;;;;;;;;;;22.00;50.10;;;;;;4862102;55;20125;-31
2023/04/29 00:24:47;;;;;;;;;;;22.10;50.20;;;;;;4750203;55;20078;-29
2023/04/29 00:29:48;;;;;;;;;;;22.10;50.10;;;;;;4763800;55;20350;-27
2023/04/29 00:34:49;;;;;;;;;;;22.00;50.10;;;;;;4788284;55;20355;-27
2023/04/29 00:39:49;;;;;;;;;;;22.00;50.20;;;;;;4746733;58;20083;-29
2023/04/29 00:44:50;;;;;;;;;;;22.00;50.20;;;;;;4746577;58;20104;-29
2023/04/29 00:49:51;;;;;;;;;;;22.10;50.30;;;;;;4817463;55;20366;-28
2023/04/29 00:54:51;;;;;;;;;;;22.00;50.20;;;;;;4777287;55;20139;-29
2023/04/29 00:59:52;;;;;;;;;;;22.00;50.30;;;;;;4746563;58;20095;-29
2023/04/29 01:04:53;;;;;;;;;;;22.00;50.30;;;;;;4746981;55;20128;-31
2023/04/29 01:10:08;;;;;;;;;;;22.00;50.30;;;;;;4754600;55;20071;-27
2023/04/29 01:16:00;;;;;;;;;;;22.00;50.30;;;;;;4764551;55;20168;-29
2023/04/29 01:21:01;;;;;;;;;;;22.00;50.30;;;;;;4746600;58;20336;-31
2023/04/29 01:26:02;;;;;;;;;;;22.00;50.40;;;;;;4746470;58;20096;-30
2023/04/29 01:31:18;;;;;;;;;;;22.00;50.40;;;;;;4880933;55;20100;-26
2023/04/29 01:36:38;;;;;;;;;;;22.00;50.40;;;;;;4745799;58;20083;-32
2023/04/29 01:41:43;;;;;;;;;;;22.10;50.50;;;;;;4812788;55;20310;-28
2023/04/29 01:46:48;;;;;;;;;;;22.10;50.50;;;;;;4778317;55;20339;-29
2023/04/29 01:51:48;;;;;;;;;;;22.00;50.40;;;;;;4749253;55;20127;-28
2023/04/29 01:56:50;;;;;;;;;;;22.00;50.40;;;;;;4789063;55;20101;-31
2023/04/29 02:01:51;;;;;;;;;;;22.00;50.40;;;;;;4805064;55;20387;-29
2023/04/29 02:06:52;;;;;;;;;;;22.00;50.40;;;;;;4759422;55;20112;-25
2023/04/29 02:11:52;;;;;;;;;;;22.00;50.50;;;;;;4773826;55;20084;-28
2023/04/29 02:16:53;;;;;;;;;;;22.00;50.70;;;;;;4833237;55;20376;-29
2023/04/29 02:21:54;;;;;;;;;;;22.00;50.50;;;;;;4825998;55;20128;-27
2023/04/29 02:26:54;;;;;;;;;;;22.00;50.60;;;;;;4788692;55;20117;-26
2023/04/29 02:31:55;;;;;;;;;;;22.00;50.60;;;;;;4764369;55;20052;-30
2023/04/29 02:36:56;;;;;;;;;;;22.00;50.60;;;;;;4752891;55;20075;-28
2023/04/29 02:41:57;;;;;;;;;;;22.00;50.60;;;;;;4746591;58;20072;-27
2023/04/29 02:46:58;;;;;;;;;;;22.00;50.60;;;;;;4760897;55;20140;-28
2023/04/29 02:51:58;;;;;;;;;;;22.00;51.20;;;;;;4789186;55;20069;-29
2023/04/29 02:56:59;;;;;;;;;;;22.00;50.60;;;;;;4751694;55;20080;-24
2023/04/29 03:02:00;;;;;;;;;;;22.00;50.60;;;;;;4840144;55;20064;-29
2023/04/29 03:07:04;;;;;;;;;;;22.00;50.60;;;;;;4855849;55;20298;-27
2023/04/29 03:12:05;;;;;;;;;;;22.00;50.60;;;;;;4841223;55;21122;-30
2023/04/29 03:17:05;;;;;;;;;;;22.00;50.60;;;;;;4804774;55;20080;-30
2023/04/29 03:22:08;;;;;;;;;;;22.00;50.70;;;;;;4747256;58;20287;-29
2023/04/29 03:27:10;;;;;;;;;;;22.00;50.70;;;;;;4755028;55;20362;-29
2023/04/29 03:32:10;;;;;;;;;;;22.00;50.60;;;;;;4844086;55;20332;-28
2023/04/29 03:37:11;;;;;;;;;;;22.00;50.60;;;;;;4783072;55;20072;-29
2023/04/29 03:42:12;;;;;;;;;;;22.00;50.60;;;;;;4770489;55;20287;-26
2023/04/29 03:47:12;;;;;;;;;;;22.00;50.60;;;;;;4900456;55;20319;-30
2023/04/29 03:52:14;;;;;;;;;;;22.00;50.70;;;;;;4801300;55;20069;-27
2023/04/29 03:57:15;;;;;;;;;;;22.00;50.80;;;;;;4763169;55;20347;-27
2023/04/29 04:02:16;;;;;;;;;;;22.00;50.70;;;;;;4747127;58;20120;-29
2023/04/29 04:07:16;;;;;;;;;;;22.00;50.70;;;;;;4747040;58;20343;-29
2023/04/29 04:12:19;;;;;;;;;;;22.00;50.80;;;;;;4746993;58;20076;-28
2023/04/29 04:17:20;;;;;;;;;;;22.00;51.60;;;;;;4745342;58;20216;-29
2023/04/29 04:22:22;;;;;;;;;;;22.00;51.00;;;;;;4756370;55;20331;-28
2023/04/29 04:27:22;;;;;;;;;;;22.00;51.60;;;;;;4795903;55;20093;-30
2023/04/29 04:32:23;;;;;;;;;;;22.00;51.10;;;;;;4783186;55;20108;-28
2023/04/29 04:37:24;;;;;;;;;;;22.00;51.00;;;;;;4781803;55;20091;-26
2023/04/29 04:42:24;;;;;;;;;;;22.00;51.10;;;;;;4746474;58;20115;-28
2023/04/29 04:47:25;;;;;;;;;;;22.00;51.30;;;;;;4830486;55;20319;-30
2023/04/29 04:52:26;;;;;;;;;;;22.00;51.10;;;;;;4791783;55;20080;-30
2023/04/29 04:57:26;;;;;;;;;;;22.00;51.10;;;;;;4780954;55;20072;-30
2023/04/29 05:02:27;;;;;;;;;;;22.00;51.10;;;;;;4795376;55;20299;-27
2023/04/29 05:07:28;;;;;;;;;;;22.00;51.10;;;;;;4759940;55;20072;-29
2023/04/29 05:12:31;;;;;;;;;;;22.00;51.10;;;;;;4749464;55;20676;-30
2023/04/29 05:17:33;;;;;;;;;;;22.00;51.10;;;;;;4783848;55;20076;-29
2023/04/29 05:22:34;;;;;;;;;;;22.00;51.20;;;;;;4761648;55;20064;-28
2023/04/29 05:27:34;;;;;;;;;;;22.00;51.10;;;;;;4754242;55;20343;-32
2023/04/29 05:32:35;;;;;;;;;;;22.00;51.10;;;;;;4807915;55;20069;-33
2023/04/29 05:37:36;;;;;;;;;;;22.00;51.80;;;;;;4781685;55;20343;-27
2023/04/29 05:42:37;;;;;;;;;;;22.00;51.20;;;;;;4860245;55;20113;-28
2023/04/29 05:47:37;;;;;;;;;;;22.00;51.20;;;;;;4792407;55;20087;-27
2023/04/29 05:52:38;;;;;;;;;;;22.00;51.20;;;;;;4775903;55;20324;-26
2023/04/29 05:57:39;;;;;;;;;;;22.00;51.20;;;;;;4745609;58;20061;-29
2023/04/29 06:02:41;;;;;;;;;;;22.00;51.20;;;;;;4988098;55;20113;-28
2023/04/29 06:07:42;;;;;;;;;;;22.00;51.20;;;;;;4747524;55;20314;-28
2023/04/29 06:12:43;;;;;;;;;;;22.00;51.80;;;;;;4783233;55;20083;-29
2023/04/29 06:17:44;;;;;;;;;;;22.00;51.20;;;;;;4758855;55;20128;-29
2023/04/29 06:22:44;;;;;;;;;;;22.00;51.20;;;;;;4775968;55;20089;-25
2023/04/29 06:27:45;;;;;;;;;;;22.00;51.30;;;;;;4767176;55;20291;-29
2023/04/29 06:32:46;;;;;;;;;;;22.00;51.20;;;;;;4746617;58;20064;-29
2023/04/29 06:37:47;;;;;;;;;;;22.00;51.20;;;;;;4836395;55;20121;-28
2023/04/29 06:42:47;;;;;;;;;;;22.00;51.20;;;;;;4873334;55;20433;-27
2023/04/29 06:47:48;;;;;;;;;;;22.10;51.30;;;;;;4838467;55;20319;-28
2023/04/29 06:52:49;;;;;;;;;;;22.00;51.30;;;;;;4918022;55;20124;-31
2023/04/29 06:57:49;;;;;;;;;;;22.00;51.20;;;;;;4747340;55;20319;-35
2023/04/29 07:02:50;;;;;;;;;;;22.00;51.20;;;;;;4746304;55;20096;-30
2023/04/29 07:07:51;;;;;;;;;;;22.00;51.20;;;;;;4745895;57;20060;-31
2023/04/29 07:12:51;;;;;;;;;;;22.00;51.90;;;;;;4774963;55;20371;-30
2023/04/29 07:17:52;;;;;;;;;;;22.00;51.20;;;;;;4788274;55;20076;-33
2023/04/29 07:22:53;;;;;;;;;;;22.00;51.20;;;;;;4809641;55;20112;-29
2023/04/29 07:27:54;;;;;;;;;;;22.00;51.30;;;;;;4745845;58;20136;-27
2023/04/29 07:32:55;;;;;;;;;;;22.00;51.30;;;;;;4785597;55;20283;-28
2023/04/29 07:37:56;;;;;;;;;;;22.00;51.20;;;;;;4810248;55;20124;-28
2023/04/29 07:42:56;;;;;;;;;;;22.10;51.40;;;;;;4777948;55;20088;-28
2023/04/29 07:47:57;;;;;;;;;;;22.00;51.20;;;;;;4825684;55;20064;-27
2023/04/29 07:53:01;;;;;;;;;;;22.10;51.30;;;;;;4787758;55;20157;-30
2023/04/29 07:58:01;;;;;;;;;;;22.10;51.30;;;;;;4773314;55;20299;-30
2023/04/29 08:03:02;;;;;;;;;;;22.10;51.30;;;;;;4785113;55;20137;-27
2023/04/29 08:08:03;;;;;;;;;;;22.10;51.30;;;;;;4784058;55;20068;-28
2023/04/29 08:13:03;;;;;;;;;;;22.10;51.30;;;;;;4802084;55;20295;-29
2023/04/29 08:18:04;;;;;;;;;;;22.10;51.40;;;;;;4746707;58;20117;-29
2023/04/29 08:23:05;;;;;;;;;;;22.10;51.30;;;;;;4746840;58;20048;-28
2023/04/29 08:28:06;;;;;;;;;;;22.10;51.20;;;;;;4745804;58;20149;-29
2023/04/29 08:33:11;;;;;;;;;;;22.10;51.30;;;;;;4746702;58;20355;-28
2023/04/29 08:38:12;;;;;;;;;;;22.10;51.30;;;;;;4857587;55;20888;-28
2023/04/29 08:43:14;;;;;;;;;;;22.10;51.30;;;;;;4771461;55;20097;-28
2023/04/29 08:48:15;;;;;;;;;;;22.10;51.40;;;;;;4792446;55;20761;-28
2023/04/29 08:53:17;;;;;;;;;;;22.10;51.30;;;;;;4930968;55;20143;-32
2023/04/29 08:58:17;;;;;;;;;;;22.10;51.90;;;;;;4841399;55;20112;-29
2023/04/29 09:03:33;;;;;;;;;;;22.10;51.30;;;;;;4811216;55;20458;-33
2023/04/29 09:08:34;;;;;;;;;;;22.10;51.30;;;;;;4823940;55;20188;-27
2023/04/29 09:13:35;;;;;;;;;;;22.10;51.30;;;;;;4762657;55;20518;-29
2023/04/29 09:18:46;;;;;;;;;;;22.10;51.30;;;;;;4766626;55;20137;-29
2023/04/29 09:23:47;;;;;;;;;;;22.10;51.30;;;;;;4746316;58;20120;-26
2023/04/29 09:29:05;;;;;;;;;;;22.10;51.30;;;;;;4745457;58;20206;-26
2023/04/29 09:34:06;;;;;;;;;;;22.10;51.30;;;;;;4779426;55;20183;-28
2023/04/29 09:39:10;;;;;;;;;;;22.10;51.30;;;;;;4813184;55;20116;-29
2023/04/29 09:44:11;;;;;;;;;;;22.10;51.30;;;;;;4746514;58;20299;-26
2023/04/29 09:49:41;;;;;;;;;;;22.10;51.30;;;;;;4770752;55;20108;-27
2023/04/29 09:54:42;;;;;;;;;;;22.10;51.30;;;;;;4786752;55;20275;-31
2023/04/29 09:59:43;;;;;;;;;;;22.10;51.30;;;;;;4749134;55;20068;-28
2023/04/29 10:04:44;;;;;;;;;;;22.10;51.30;;;;;;4827450;55;20290;-26
2023/04/29 10:09:46;;;;;;;;;;;22.10;51.30;;;;;;4774625;55;20107;-29
2023/04/29 10:14:53;;;;;;;;;;;22.10;51.30;;;;;;4793259;55;20370;-31
2023/04/29 10:20:00;;;;;;;;;;;22.10;51.30;;;;;;4845545;55;20307;-28
2023/04/29 10:25:01;;;;;;;;;;;22.10;51.30;;;;;;4832880;55;20068;-28
2023/04/29 10:30:03;;;;;;;;;;;22.10;51.30;;;;;;4853408;54;20155;-31
2023/04/29 10:35:06;;;;;;;;;;;22.10;51.30;;;;;;4746011;55;20332;-22
2023/04/29 10:40:12;;;;;;;;;;;22.10;51.40;;;;;;4852898;55;20112;-28
2023/04/29 10:45:33;;;;;;;;;;;22.10;51.30;;;;;;4815410;55;20326;-29
2023/04/29 10:50:52;;;;;;;;;;;22.10;51.30;;;;;;4753811;55;20330;-28
2023/04/29 10:55:57;;;;;;;;;;;22.10;51.30;;;;;;4869101;55;20116;-26
2023/04/29 11:01:00;;;;;;;;;;;22.10;52.00;;;;;;4803495;55;20072;-27
2023/04/29 11:06:07;;;;;;;;;;;22.10;51.40;;;;;;4786959;55;20068;-29
2023/04/29 11:11:08;;;;;;;;;;;22.10;51.40;;;;;;4754436;55;20362;-28
2023/04/29 11:16:10;;;;;;;;;;;22.10;51.40;;;;;;4750410;55;20065;-28
2023/04/29 11:21:11;;;;;;;;;;;22.10;51.40;;;;;;4775047;55;20104;-27
2023/04/29 11:26:12;;;;;;;;;;;22.10;51.40;;;;;;4817324;55;20343;-28
2023/04/29 11:31:12;;;;;;;;;;;22.10;51.40;;;;;;4817023;55;20117;-31
2023/04/29 11:36:14;;;;;;;;;;;22.20;51.50;;;;;;4745929;58;20060;-31
2023/04/29 11:41:14;;;;;;;;;;;22.10;51.40;;;;;;4804354;55;20303;-29
2023/04/29 11:46:15;;;;;;;;;;;22.10;51.40;;;;;;4775867;55;20077;-28
2023/04/29 11:51:16;;;;;;;;;;;22.10;51.50;;;;;;4746652;58;20394;-29
2023/04/29 11:56:20;;;;;;;;;;;22.10;51.50;;;;;;4768459;55;20120;-27
2023/04/29 12:01:21;;;;;;;;;;;22.10;51.60;;;;;;4761579;55;20413;-27
2023/04/29 12:06:26;;;;;;;;;;;22.10;51.50;;;;;;4893467;55;20179;-31
2023/04/29 12:11:27;;;;;;;;;;;22.10;51.50;;;;;;4746526;58;20176;-27
2023/04/29 12:16:29;;;;;;;;;;;22.10;52.20;;;;;;4746182;55;20291;-26
2023/04/29 12:21:30;;;;;;;;;;;22.20;51.50;;;;;;4786186;55;20412;-28
2023/04/29 12:26:32;;;;;;;;;;;22.20;51.60;;;;;;4746507;58;20348;-29
2023/04/29 12:31:35;;;;;;;;;;;22.10;51.60;;;;;;4822578;55;20362;-27
2023/04/29 12:36:36;;;;;;;;;;;22.20;51.70;;;;;;4751555;55;20338;-29
2023/04/29 12:41:40;;;;;;;;;;;22.20;51.70;;;;;;4746999;55;20060;-26
2023/04/29 12:46:41;;;;;;;;;;;22.20;51.70;;;;;;4788424;55;20302;-28
2023/04/29 12:51:42;;;;;;;;;;;22.20;51.70;;;;;;4825798;55;20119;-25
2023/04/29 12:56:43;;;;;;;;;;;22.20;51.80;;;;;;4751261;55;20124;-28
2023/04/29 13:01:43;;;;;;;;;;;22.20;51.80;;;;;;4746488;58;20406;-27
2023/04/29 13:06:44;;;;;;;;;;;22.20;51.80;;;;;;4789444;55;20116;-29
2023/04/29 13:11:46;;;;;;;;;;;22.20;51.80;;;;;;4751646;55;20306;-28
2023/04/29 13:16:47;;;;;;;;;;;22.20;51.80;;;;;;4777987;55;20171;-27
2023/04/29 13:21:48;;;;;;;;;;;22.20;51.90;;;;;;4746408;58;20060;-29
2023/04/29 13:26:48;;;;;;;;;;;22.20;51.90;;;;;;4746074;58;20077;-29
2023/04/29 13:31:49;;;;;;;;;;;22.20;52.00;;;;;;4773542;55;20120;-32
2023/04/29 13:36:50;;;;;;;;;;;22.20;51.90;;;;;;4772252;55;20072;-27
2023/04/29 13:41:50;;;;;;;;;;;22.20;52.00;;;;;;4746380;58;20072;-30
2023/04/29 13:46:51;;;;;;;;;;;22.20;52.00;;;;;;4753119;55;20061;-25
2023/04/29 13:51:52;;;;;;;;;;;22.20;52.00;;;;;;4755444;55;20076;-27
2023/04/29 13:56:53;;;;;;;;;;;22.20;52.00;;;;;;4745987;58;20068;-28
2023/04/29 14:01:53;;;;;;;;;;;22.20;52.00;;;;;;4751220;55;20119;-28
2023/04/29 14:06:54;;;;;;;;;;;22.20;52.00;;;;;;4768104;55;20064;-28
2023/04/29 14:11:55;;;;;;;;;;;22.20;52.00;;;;;;4746942;55;20302;-29
2023/04/29 14:16:56;;;;;;;;;;;22.20;52.00;;;;;;4903413;55;20109;-29
2023/04/29 14:21:57;;;;;;;;;;;22.20;52.00;;;;;;4826107;55;20072;-29
2023/04/29 14:26:57;;;;;;;;;;;22.20;52.10;;;;;;4745897;58;20136;-30
2023/04/29 14:32:01;;;;;;;;;;;22.20;52.10;;;;;;4784409;55;20109;-29
2023/04/29 14:37:02;;;;;;;;;;;22.20;52.10;;;;;;4765629;55;20156;-31
2023/04/29 14:42:02;;;;;;;;;;;22.20;52.10;;;;;;4829793;55;20068;-29
2023/04/29 14:47:03;;;;;;;;;;;22.20;52.10;;;;;;4745995;55;20068;-28
2023/04/29 14:52:04;;;;;;;;;;;22.20;52.10;;;;;;4771839;55;20362;-28
2023/04/29 14:57:05;;;;;;;;;;;22.20;52.10;;;;;;4782882;55;20068;-30
2023/04/29 15:02:05;;;;;;;;;;;22.20;52.10;;;;;;4762950;55;20310;-29
2023/04/29 15:07:09;;;;;;;;;;;22.20;52.10;;;;;;4811094;55;20176;-27
2023/04/29 15:12:09;;;;;;;;;;;22.20;52.10;;;;;;4747232;55;20152;-31
2023/04/29 15:17:10;;;;;;;;;;;22.20;52.20;;;;;;4779155;55;20112;-27
2023/04/29 15:22:11;;;;;;;;;;;22.20;52.20;;;;;;4915470;55;20112;-30
2023/04/29 15:27:12;;;;;;;;;;;22.20;52.20;;;;;;4748773;55;20358;-29
2023/04/29 15:32:13;;;;;;;;;;;22.20;52.20;;;;;;4757951;55;20152;-28
2023/04/29 15:37:13;;;;;;;;;;;22.20;52.20;;;;;;4756658;55;20052;-29
2023/04/29 15:42:14;;;;;;;;;;;22.20;52.20;;;;;;4784889;55;20135;-29
2023/04/29 15:47:15;;;;;;;;;;;22.20;52.20;;;;;;4760210;55;20118;-28
2023/04/29 15:52:15;;;;;;;;;;;22.20;52.20;;;;;;4781617;55;20080;-30
2023/04/29 15:57:16;;;;;;;;;;;22.20;52.30;;;;;;4745464;58;20196;-32
2023/04/29 16:02:19;;;;;;;;;;;22.20;52.20;;;;;;4785776;55;20132;-29
2023/04/29 16:07:19;;;;;;;;;;;22.20;52.30;;;;;;4802613;55;20060;-29
2023/04/29 16:12:20;;;;;;;;;;;22.20;52.30;;;;;;4788486;55;20291;-29
2023/04/29 16:17:22;;;;;;;;;;;22.20;52.30;;;;;;4745891;58;20363;-33
2023/04/29 16:22:23;;;;;;;;;;;22.20;52.30;;;;;;4754211;55;20176;-29
2023/04/29 16:27:23;;;;;;;;;;;22.20;52.40;;;;;;4746234;58;20299;-29
2023/04/29 16:32:26;;;;;;;;;;;22.20;52.40;;;;;;4830521;55;20061;-31
2023/04/29 16:37:27;;;;;;;;;;;22.20;52.50;;;;;;4801709;55;20298;-28
2023/04/29 16:42:28;;;;;;;;;;;22.20;52.50;;;;;;4792947;55;20069;-24
2023/04/29 16:47:28;;;;;;;;;;;22.20;52.50;;;;;;4746443;58;20120;-28
2023/04/29 16:52:29;;;;;;;;;;;22.30;52.50;;;;;;4760612;55;20108;-29
2023/04/29 16:57:30;;;;;;;;;;;22.30;52.50;;;;;;4771736;55;20070;-30
2023/04/29 17:02:31;;;;;;;;;;;22.20;52.50;;;;;;4748739;55;20465;-28
2023/04/29 17:07:32;;;;;;;;;;;22.30;52.50;;;;;;4746486;58;20108;-32
2023/04/29 17:12:32;;;;;;;;;;;22.30;52.60;;;;;;4811802;55;20326;-27
2023/04/29 17:17:33;;;;;;;;;;;22.20;52.50;;;;;;4753715;55;20326;-27
2023/04/29 17:22:34;;;;;;;;;;;22.30;52.50;;;;;;4756507;55;20344;-29
2023/04/29 17:27:35;;;;;;;;;;;22.30;52.50;;;;;;4788347;55;20325;-28
2023/04/29 17:32:38;;;;;;;;;;;22.30;52.50;;;;;;4746519;58;20543;-29
2023/04/29 17:37:38;;;;;;;;;;;22.30;52.50;;;;;;4798057;55;20323;-30
2023/04/29 17:42:39;;;;;;;;;;;22.30;52.50;;;;;;4746360;55;20080;-29
2023/04/29 17:47:40;;;;;;;;;;;22.30;53.20;;;;;;4772267;55;20822;-30
2023/04/29 17:52:40;;;;;;;;;;;22.30;52.50;;;;;;4791049;55;20330;-31
2023/04/29 17:57:41;;;;;;;;;;;22.30;52.60;;;;;;4763911;55;20395;-28
2023/04/29 18:02:42;;;;;;;;;;;22.30;52.50;;;;;;4768965;55;20314;-32
2023/04/29 18:07:42;;;;;;;;;;;22.30;52.50;;;;;;4792022;55;20104;-29
2023/04/29 18:12:43;;;;;;;;;;;22.30;53.10;;;;;;4746390;58;20061;-30
2023/04/29 18:17:43;;;;;;;;;;;22.30;52.50;;;;;;4761027;55;20116;-28
2023/04/29 18:22:45;;;;;;;;;;;22.30;52.50;;;;;;4746464;58;20065;-27
2023/04/29 18:27:45;;;;;;;;;;;22.30;52.50;;;;;;4745917;58;20338;-29
2023/04/29 18:32:46;;;;;;;;;;;22.30;52.50;;;;;;4746460;58;20069;-28
2023/04/29 18:37:48;;;;;;;;;;;22.30;52.50;;;;;;4745505;58;20108;-30
2023/04/29 18:42:49;;;;;;;;;;;22.30;52.50;;;;;;4819877;55;20310;-27
2023/04/29 18:47:50;;;;;;;;;;;22.30;52.50;;;;;;4819415;55;20068;-28
2023/04/29 18:52:52;;;;;;;;;;;22.30;52.50;;;;;;4746666;58;20164;-27
2023/04/29 18:57:52;;;;;;;;;;;22.20;52.40;;;;;;4808937;55;20335;-27
2023/04/29 19:02:55;;;;;;;;;;;22.30;52.40;;;;;;4836583;55;20322;-28
2023/04/29 19:07:56;;;;;;;;;;;22.30;52.50;;;;;;4768640;55;20298;-28
2023/04/29 19:12:57;;;;;;;;;;;22.20;52.50;;;;;;4865089;55;20294;-27
2023/04/29 19:17:57;;;;;;;;;;;22.30;52.50;;;;;;4745038;59;20056;-25
2023/04/29 19:22:58;;;;;;;;;;;22.20;52.50;;;;;;4746309;58;20073;-27
2023/04/29 19:27:59;;;;;;;;;;;22.30;52.50;;;;;;4768793;55;20331;-27
2023/04/29 19:32:59;;;;;;;;;;;22.30;52.60;;;;;;4819012;55;20068;-28
2023/04/29 19:38:03;;;;;;;;;;;22.30;52.60;;;;;;4750567;55;20116;-27
2023/04/29 19:43:03;;;;;;;;;;;22.30;52.60;;;;;;4798646;55;20114;-28
2023/04/29 19:48:06;;;;;;;;;;;22.30;52.70;;;;;;4748641;55;20128;-29
2023/04/29 19:53:06;;;;;;;;;;;22.30;52.60;;;;;;4746880;55;20119;-28
2023/04/29 19:58:10;;;;;;;;;;;22.30;52.60;;;;;;4858015;55;20056;-27
2023/04/29 20:03:11;;;;;;;;;;;22.30;52.70;;;;;;4789223;55;20486;-29
2023/04/29 20:08:12;;;;;;;;;;;22.30;52.60;;;;;;4748005;55;20469;-32
2023/04/29 20:13:12;;;;;;;;;;;22.30;52.60;;;;;;4759761;55;20403;-29
2023/04/29 20:18:13;;;;;;;;;;;22.30;52.60;;;;;;4745439;58;20056;-28
2023/04/29 20:23:14;;;;;;;;;;;22.20;52.60;;;;;;4746668;58;20104;-29
2023/04/29 20:28:15;;;;;;;;;;;22.30;52.60;;;;;;4779641;55;20310;-27
2023/04/29 20:33:16;;;;;;;;;;;22.30;52.70;;;;;;4778325;55;20072;-28
2023/04/29 20:38:16;;;;;;;;;;;22.30;52.60;;;;;;4766704;55;20077;-29
2023/04/29 20:43:17;;;;;;;;;;;22.20;52.60;;;;;;4762274;55;20073;-31
2023/04/29 20:48:18;;;;;;;;;;;22.30;52.60;;;;;;4796868;55;20286;-28
2023/04/29 20:53:19;;;;;;;;;;;22.30;52.60;;;;;;4768854;55;20441;-28
2023/04/29 20:58:19;;;;;;;;;;;22.30;52.60;;;;;;4748521;55;20065;-29
2023/04/29 21:03:21;;;;;;;;;;;22.30;52.70;;;;;;4746542;58;20307;-28
2023/04/29 21:08:22;;;;;;;;;;;22.20;52.60;;;;;;4751436;55;20080;-30
2023/04/29 21:13:23;;;;;;;;;;;22.30;52.60;;;;;;4789520;55;20060;-29
2023/04/29 21:18:24;;;;;;;;;;;22.20;52.60;;;;;;4746058;55;20113;-29
2023/04/29 21:23:28;;;;;;;;;;;22.20;52.60;;;;;;4746768;58;20287;-32
2023/04/29 21:28:29;;;;;;;;;;;22.20;52.60;;;;;;4745477;58;20160;-31
2023/04/29 21:33:29;;;;;;;;;;;22.20;52.60;;;;;;4751527;55;20346;-28
2023/04/29 21:38:30;;;;;;;;;;;22.20;52.60;;;;;;4766359;55;20298;-27
2023/04/29 21:43:31;;;;;;;;;;;22.20;52.60;;;;;;4851525;55;20056;-29
2023/04/29 21:48:32;;;;;;;;;;;22.30;52.60;;;;;;4767517;55;20065;-29
2023/04/29 21:53:33;;;;;;;;;;;22.20;52.60;;;;;;4746425;58;20303;-27
2023/04/29 21:58:33;;;;;;;;;;;22.20;52.60;;;;;;4805654;55;20057;-26
2023/04/29 22:03:35;;;;;;;;;;;22.20;52.60;;;;;;4822404;55;20136;-27
2023/04/29 22:08:36;;;;;;;;;;;22.20;52.60;;;;;;4795226;55;20322;-26
2023/04/29 22:13:36;;;;;;;;;;;22.20;52.60;;;;;;4804927;55;20092;-27
2023/04/29 22:18:38;;;;;;;;;;;22.20;52.50;;;;;;4776280;55;20339;-28
2023/04/29 22:23:39;;;;;;;;;;;22.20;52.60;;;;;;4746368;58;20124;-31
2023/04/29 22:28:43;;;;;;;;;;;22.20;52.60;;;;;;4761778;55;20072;-27
2023/04/29 22:33:43;;;;;;;;;;;22.20;52.50;;;;;;4895708;55;20068;-28
2023/04/29 22:38:44;;;;;;;;;;;22.20;52.50;;;;;;4784643;55;20056;-26
2023/04/29 22:43:44;;;;;;;;;;;22.20;52.50;;;;;;4746418;58;20064;-24
2023/04/29 22:48:45;;;;;;;;;;;22.20;52.50;;;;;;4763268;55;20069;-26
2023/04/29 22:53:46;;;;;;;;;;;22.20;52.50;;;;;;4770397;55;20089;-28
2023/04/29 22:58:48;;;;;;;;;;;22.20;52.50;;;;;;4746709;58;20114;-28
2023/04/29 23:03:48;;;;;;;;;;;22.20;52.50;;;;;;4789954;55;20060;-29
2023/04/29 23:08:49;;;;;;;;;;;22.20;52.50;;;;;;4794583;55;20335;-27
2023/04/29 23:13:51;;;;;;;;;;;22.20;52.50;;;;;;4771417;55;20069;-29
2023/04/29 23:18:52;;;;;;;;;;;22.20;52.50;;;;;;4806369;55;20294;-32
2023/04/29 23:23:53;;;;;;;;;;;22.20;52.50;;;;;;4771481;55;20100;-29
2023/04/29 23:28:53;;;;;;;;;;;22.20;52.50;;;;;;4746148;55;20298;-25
2023/04/29 23:33:54;;;;;;;;;;;22.20;52.40;;;;;;4810337;55;20258;-29
2023/04/29 23:38:55;;;;;;;;;;;22.20;52.40;;;;;;4770808;55;20306;-28
2023/04/29 23:43:59;;;;;;;;;;;22.20;52.50;;;;;;4751191;55;20339;-27
2023/04/29 23:49:00;;;;;;;;;;;22.20;52.50;;;;;;4771707;55;20310;-32
2023/04/29 23:54:01;;;;;;;;;;;22.20;52.30;;;;;;4816953;55;20113;-28
2023/04/29 23:59:01;;;;;;;;;;;22.20;52.30;;;;;;4784276;55;20068;-27
